createdAt,value
2022-11-10T00:02:24.497Z,7.28
2022-11-10T00:05:29.413Z,4.13
2022-11-10T00:08:33.903Z,5.40
2022-11-10T00:11:38.356Z,5.90
2022-11-10T00:15:00.932Z,7.60
2022-11-10T00:18:05.549Z,5.22
2022-11-10T00:21:11.417Z,4.50
2022-11-10T00:24:15.547Z,7.28
2022-11-10T00:27:20.065Z,5.03
2022-11-10T00:30:24.128Z,4.82
2022-11-10T00:33:28.385Z,8.10
2022-11-10T00:36:34.211Z,8.40
2022-11-10T00:39:38.672Z,6.47
2022-11-10T00:42:43.262Z,6.20
2022-11-10T00:45:47.776Z,4.28
2022-11-10T00:48:52.080Z,6.90
2022-11-10T00:51:56.488Z,5.47
2022-11-10T00:55:00.847Z,6.07
2022-11-10T00:58:05.214Z,6.38
2022-11-10T01:01:10.860Z,5.53
2022-11-10T01:04:15.228Z,6.93
2022-11-10T01:07:19.408Z,5.28
2022-11-10T01:10:23.794Z,6.15
2022-11-10T01:13:28.184Z,5.15
2022-11-10T01:16:32.887Z,8.43
2022-11-10T01:19:36.959Z,5.50
2022-11-10T01:22:41.186Z,6.75
2022-11-10T01:25:45.925Z,5.85
2022-11-10T01:28:50.506Z,5.88
2022-11-10T01:31:54.819Z,9.48
2022-11-10T01:34:59.110Z,8.18
2022-11-10T01:38:03.540Z,5.72
2022-11-10T01:41:09.486Z,4.20
2022-11-10T01:44:25.758Z,7.37
2022-11-10T01:47:30.067Z,6.80
2022-11-10T01:50:38.971Z,5.77
2022-11-10T01:53:46.446Z,5.13
2022-11-10T01:56:57.317Z,7.00
2022-11-10T02:00:02.117Z,7.30
2022-11-10T02:03:39.444Z,9.47
2022-11-10T02:06:46.796Z,6.40
2022-11-10T02:09:53.412Z,6.00
2022-11-10T02:12:57.320Z,7.90
2022-11-10T02:16:01.967Z,5.03
2022-11-10T02:19:18.516Z,6.07
2022-11-10T02:22:22.895Z,7.03
2022-11-10T02:25:32.481Z,6.07
2022-11-10T02:28:38.155Z,8.70
2022-11-10T02:31:42.597Z,10.73
2022-11-10T02:34:47.544Z,9.33
2022-11-10T02:37:52.037Z,6.20
2022-11-10T02:40:56.308Z,7.03
2022-11-10T02:44:01.088Z,8.13
2022-11-10T02:47:05.871Z,5.87
2022-11-10T02:50:10.428Z,7.53
2022-11-10T02:53:14.698Z,11.23
2022-11-10T02:56:19.175Z,6.17
2022-11-10T02:59:23.596Z,5.87
2022-11-10T03:02:32.119Z,7.37
2022-11-10T03:05:36.653Z,6.40
2022-11-10T03:08:41.230Z,7.13
2022-11-10T03:11:45.521Z,8.30
2022-11-10T03:14:50.066Z,5.43
2022-11-10T03:17:55.230Z,6.97
2022-11-10T03:20:59.447Z,6.43
2022-11-10T03:24:04.101Z,6.97
2022-11-10T03:27:08.428Z,8.47
2022-11-10T03:30:13.252Z,6.50
2022-11-10T03:33:17.583Z,6.20
2022-11-10T03:36:21.984Z,5.47
2022-11-10T03:39:26.376Z,6.10
2022-11-10T03:42:30.752Z,7.80
2022-11-10T03:45:35.351Z,8.20
2022-11-10T03:48:39.794Z,6.80
2022-11-10T03:51:44.280Z,6.20
2022-11-10T03:54:48.479Z,6.80
2022-11-10T03:57:52.988Z,8.53
2022-11-10T04:00:58.171Z,10.23
2022-11-10T04:04:02.487Z,5.50
2022-11-10T04:07:26.708Z,5.77
2022-11-10T04:10:31.201Z,5.97
2022-11-10T04:13:54.023Z,8.20
2022-11-10T04:16:58.604Z,7.43
2022-11-10T04:20:03.924Z,7.87
2022-11-10T04:23:26.885Z,9.70
2022-11-10T04:26:32.776Z,8.77
2022-11-10T04:29:37.086Z,7.53
2022-11-10T04:32:41.648Z,9.17
2022-11-10T04:35:46.066Z,7.17
2022-11-10T04:38:50.672Z,8.83
2022-11-10T04:41:59.748Z,8.93
2022-11-10T04:45:07.051Z,5.97
2022-11-10T04:48:11.319Z,8.40
2022-11-10T04:51:17.163Z,7.63
2022-11-10T04:54:21.772Z,8.37
2022-11-10T04:57:26.257Z,6.93
2022-11-10T05:00:30.801Z,7.43
2022-11-10T05:03:35.273Z,6.07
2022-11-10T05:06:39.654Z,6.47
2022-11-10T05:09:44.124Z,7.07
2022-11-10T05:12:48.800Z,8.93
2022-11-10T05:15:54.042Z,8.70
2022-11-10T05:18:58.307Z,8.13
2022-11-10T05:22:02.847Z,9.17
2022-11-10T05:25:08.506Z,8.40
2022-11-10T05:28:13.610Z,6.57
2022-11-10T05:31:18.111Z,7.40
2022-11-10T05:34:23.138Z,9.57
2022-11-10T05:37:27.695Z,10.07
2022-11-10T05:40:33.230Z,11.20
2022-11-10T05:43:37.296Z,14.33
2022-11-10T05:46:42.691Z,9.93
2022-11-10T05:49:55.868Z,7.70
2022-11-10T05:53:01.476Z,11.53
2022-11-10T05:56:06.372Z,13.77
2022-11-10T05:59:10.731Z,9.67
2022-11-10T06:02:15.494Z,12.60
2022-11-10T06:05:19.802Z,10.37
2022-11-10T06:08:24.176Z,7.50
2022-11-10T06:11:28.356Z,9.50
2022-11-10T06:14:32.777Z,10.03
2022-11-10T06:17:40.885Z,8.87
2022-11-10T06:20:47.286Z,8.27
2022-11-10T06:23:51.858Z,7.90
2022-11-10T06:26:56.159Z,9.70
2022-11-10T06:30:00.614Z,12.13
2022-11-10T06:33:05.054Z,9.43
2022-11-10T06:36:09.806Z,6.70
2022-11-10T06:39:14.419Z,11.50
2022-11-10T06:42:19.002Z,9.23
2022-11-10T06:45:23.800Z,4.97
2022-11-10T06:48:27.786Z,9.67
2022-11-10T06:51:32.568Z,8.43
2022-11-10T06:54:36.979Z,9.83
2022-11-10T06:57:41.158Z,8.00
2022-11-10T07:00:45.870Z,9.77
2022-11-10T07:04:17.535Z,9.57
2022-11-10T07:07:14.980Z,10.50
2022-11-10T07:10:19.186Z,7.87
2022-11-10T07:13:24.230Z,9.47
2022-11-10T07:16:29.307Z,7.10
2022-11-10T07:19:33.763Z,8.37
2022-11-10T07:22:38.208Z,11.43
2022-11-10T07:25:42.465Z,11.50
2022-11-10T07:28:47.070Z,6.87
2022-11-10T07:31:52.133Z,10.43
2022-11-10T07:34:56.604Z,9.33
2022-11-10T07:38:07.333Z,6.73
2022-11-10T07:41:11.656Z,9.53
2022-11-10T07:44:16.088Z,7.80
2022-11-10T07:47:20.514Z,8.33
2022-11-10T07:50:24.905Z,6.17
2022-11-10T07:53:29.459Z,8.23
2022-11-10T07:56:33.820Z,6.20
2022-11-10T07:59:38.297Z,8.90
2022-11-10T08:02:42.436Z,9.53
2022-11-10T08:05:47.264Z,8.27
2022-11-10T08:08:51.724Z,10.00
2022-11-10T08:11:56.143Z,7.57
2022-11-10T08:15:00.833Z,9.77
2022-11-10T08:18:09.718Z,8.57
2022-11-10T08:21:14.195Z,10.07
2022-11-10T08:24:18.706Z,7.40
2022-11-10T08:27:23.144Z,9.30
2022-11-10T08:30:28.809Z,7.73
2022-11-10T08:33:33.617Z,10.83
2022-11-10T08:36:38.300Z,9.03
2022-11-10T08:39:42.581Z,10.10
2022-11-10T08:42:47.923Z,11.27
2022-11-10T08:45:55.770Z,8.90
2022-11-10T08:49:00.175Z,11.70
2022-11-10T08:52:05.049Z,7.30
2022-11-10T08:55:09.578Z,12.00
2022-11-10T08:58:16.083Z,10.13
2022-11-10T09:01:21.299Z,8.02
2022-11-10T09:04:25.740Z,12.00
2022-11-10T09:07:31.300Z,8.60
2022-11-10T09:10:44.475Z,8.57
2022-11-10T09:13:48.816Z,6.13
2022-11-10T09:16:53.168Z,8.98
2022-11-10T09:19:57.841Z,7.00
2022-11-10T09:23:13.375Z,11.23
2022-11-10T09:26:17.559Z,15.23
2022-11-10T09:29:22.974Z,12.07
2022-11-10T09:32:27.475Z,11.82
2022-11-10T09:35:31.925Z,8.60
2022-11-10T09:38:37.468Z,13.98
2022-11-10T09:41:45.582Z,11.88
2022-11-10T09:45:01.556Z,7.18
2022-11-10T09:48:31.063Z,7.03
2022-11-10T09:51:48.184Z,11.50
2022-11-10T09:55:10.037Z,6.60
2022-11-10T09:58:18.545Z,12.30
2022-11-10T10:01:47.347Z,14.45
2022-11-10T10:05:32.533Z,7.57
2022-11-10T10:08:50.581Z,11.40
2022-11-10T10:12:05.132Z,11.70
2022-11-10T10:15:17.611Z,11.00
2022-11-10T10:18:41.894Z,8.50
2022-11-10T10:22:12.608Z,6.53
2022-11-10T10:25:23.742Z,8.60
2022-11-10T10:28:38.811Z,7.80
2022-11-10T10:31:47.364Z,10.90
2022-11-10T10:34:51.743Z,6.97
2022-11-10T10:37:57.711Z,10.77
2022-11-10T10:41:13.755Z,13.02
2022-11-10T10:44:19.778Z,11.88
2022-11-10T10:47:37.130Z,7.50
2022-11-10T10:50:43.160Z,7.88
2022-11-10T10:53:48.184Z,8.20
2022-11-10T10:57:21.566Z,7.57
2022-11-10T11:00:26.507Z,7.20
2022-11-10T11:03:41.158Z,7.40
2022-11-10T11:07:06.061Z,6.75
2022-11-10T11:10:30.956Z,5.63
2022-11-10T11:13:35.703Z,9.85
2022-11-10T11:16:53.231Z,6.30
2022-11-10T11:20:00.061Z,5.40
2022-11-10T11:23:27.898Z,8.80
2022-11-10T11:27:18.812Z,7.38
2022-11-10T11:30:24.980Z,9.20
2022-11-10T11:33:42.674Z,8.00
2022-11-10T11:37:19.891Z,10.35
2022-11-10T11:40:45.464Z,12.57
2022-11-10T11:44:14.567Z,7.60
2022-11-10T11:47:36.979Z,5.15
2022-11-10T11:51:02.957Z,4.88
2022-11-10T11:54:35.487Z,6.93
2022-11-10T11:58:13.316Z,9.40
2022-11-10T12:01:35.858Z,7.72
2022-11-10T12:05:33.801Z,6.80
2022-11-10T12:09:09.477Z,5.35
2022-11-10T12:12:25.958Z,7.70
2022-11-10T12:15:35.988Z,4.80
2022-11-10T12:18:58.939Z,5.50
2022-11-10T12:22:17.890Z,8.45
2022-11-10T12:25:40.613Z,5.28
2022-11-10T12:28:59.784Z,4.60
2022-11-10T12:32:37.389Z,11.48
2022-11-10T12:35:46.141Z,7.60
2022-11-10T12:39:11.784Z,6.15
2022-11-10T12:42:21.218Z,5.53
2022-11-10T12:45:33.802Z,7.35
2022-11-10T12:49:31.110Z,6.10
2022-11-10T12:52:47.150Z,6.82
2022-11-10T12:56:07.683Z,5.18
2022-11-10T12:59:21.149Z,6.22
2022-11-10T13:02:37.930Z,5.07
2022-11-10T13:05:45.348Z,6.03
2022-11-10T13:08:50.631Z,5.18
2022-11-10T13:12:04.656Z,4.45
2022-11-10T13:15:36.696Z,4.43
2022-11-10T13:18:41.205Z,4.47
2022-11-10T13:21:51.672Z,6.28
2022-11-10T13:25:34.602Z,3.13
2022-11-10T13:28:48.410Z,7.43
2022-11-10T13:31:56.071Z,6.68
2022-11-10T13:35:28.157Z,4.82
2022-11-10T13:38:32.590Z,6.28
2022-11-10T13:42:02.215Z,5.85
2022-11-10T13:45:38.677Z,6.18
2022-11-10T13:49:15.460Z,4.70
2022-11-10T13:52:34.291Z,4.45
2022-11-10T13:56:21.093Z,5.55
2022-11-10T13:59:28.830Z,4.45
2022-11-10T14:02:39.235Z,3.40
2022-11-10T14:06:03.391Z,5.60
2022-11-10T14:09:29.127Z,5.80
2022-11-10T14:12:41.368Z,5.88
2022-11-10T14:15:48.271Z,5.30
2022-11-10T14:19:34.986Z,5.97
2022-11-10T14:22:44.373Z,6.53
2022-11-10T14:25:57.496Z,7.07
2022-11-10T14:29:28.553Z,4.97
2022-11-10T14:32:32.795Z,3.72
2022-11-10T14:36:02.009Z,4.70
2022-11-10T14:39:07.304Z,3.08
2022-11-10T14:42:18.583Z,7.65
2022-11-10T14:45:28.137Z,3.05
2022-11-10T14:48:37.832Z,5.22
2022-11-10T14:51:42.418Z,2.97
2022-11-10T14:54:47.647Z,3.58
2022-11-10T14:58:03.182Z,5.18
2022-11-10T15:01:20.629Z,4.07
2022-11-10T15:04:31.720Z,6.45
2022-11-10T15:07:36.339Z,9.68
2022-11-10T15:10:40.695Z,5.75
2022-11-10T15:13:45.173Z,6.80
2022-11-10T15:17:03.039Z,3.33
2022-11-10T15:20:30.031Z,5.00
2022-11-10T15:23:38.075Z,3.28
2022-11-10T15:26:42.251Z,7.57
2022-11-10T15:29:47.907Z,3.47
2022-11-10T15:32:52.652Z,3.67
2022-11-10T15:36:17.608Z,6.63
2022-11-10T15:39:26.758Z,3.65
2022-11-10T15:42:31.335Z,2.42
2022-11-10T15:45:36.671Z,3.70
2022-11-10T15:48:47.376Z,4.05
2022-11-10T15:51:54.880Z,6.45
2022-11-10T15:54:58.945Z,4.15
2022-11-10T15:58:03.313Z,4.13
2022-11-10T16:01:11.319Z,3.83
2022-11-10T16:04:15.901Z,2.13
2022-11-10T16:07:21.247Z,2.60
2022-11-10T16:10:28.123Z,3.08
2022-11-10T16:13:32.813Z,3.28
2022-11-10T16:16:36.765Z,1.27
2022-11-10T16:19:41.323Z,6.53
2022-11-10T16:22:45.921Z,1.77
2022-11-10T16:25:53.007Z,2.53
2022-11-10T16:28:57.161Z,3.47
2022-11-10T16:32:01.565Z,6.53
2022-11-10T16:35:06.324Z,4.47
2022-11-10T16:38:22.049Z,3.17
2022-11-10T16:41:26.762Z,6.03
2022-11-10T16:44:31.176Z,3.35
2022-11-10T16:47:35.437Z,3.67
2022-11-10T16:50:40.055Z,3.67
2022-11-10T16:53:44.874Z,4.45
2022-11-10T16:56:49.147Z,9.43
2022-11-10T16:59:53.524Z,3.53
2022-11-10T17:03:11.340Z,3.80
2022-11-10T17:06:16.487Z,3.00
2022-11-10T17:09:26.689Z,8.00
2022-11-10T17:12:31.457Z,6.53
2022-11-10T17:15:35.517Z,5.18
2022-11-10T17:18:40.242Z,6.63
2022-11-10T17:21:45.322Z,9.85
2022-11-10T17:24:54.970Z,12.57
2022-11-10T17:27:59.803Z,51.55
2022-11-10T17:31:04.275Z,71.88
2022-11-10T17:34:08.566Z,77.03
2022-11-10T17:37:13.941Z,87.13
2022-11-10T17:40:23.851Z,106.68
2022-11-10T17:43:28.127Z,99.68
2022-11-10T17:46:32.585Z,97.85
2022-11-10T17:49:36.888Z,99.10
2022-11-10T17:52:42.046Z,101.35
2022-11-10T17:55:47.959Z,80.05
2022-11-10T17:58:53.553Z,92.13
2022-11-10T18:01:58.275Z,77.35
2022-11-10T18:05:03.040Z,85.35
2022-11-10T18:08:07.058Z,85.80
2022-11-10T18:11:14.440Z,94.25
2022-11-10T18:14:18.681Z,86.28
2022-11-10T18:17:23.159Z,80.55
2022-11-10T18:20:27.489Z,75.60
2022-11-10T18:23:32.559Z,76.97
2022-11-10T18:26:37.044Z,74.28
2022-11-10T18:29:41.600Z,81.38
2022-11-10T18:32:46.100Z,78.13
2022-11-10T18:35:50.688Z,75.55
2022-11-10T18:38:54.930Z,68.95
2022-11-10T18:42:00.008Z,70.00
2022-11-10T18:45:05.362Z,67.45
2022-11-10T18:48:10.023Z,65.45
2022-11-10T18:51:15.319Z,67.93
2022-11-10T18:54:19.679Z,65.47
2022-11-10T18:57:23.960Z,61.80
2022-11-10T19:00:27.988Z,61.15
2022-11-10T19:03:32.530Z,61.08
2022-11-10T19:06:37.020Z,55.28
2022-11-10T19:09:41.655Z,57.13
2022-11-10T19:12:45.904Z,60.85
2022-11-10T19:15:49.997Z,53.97
2022-11-10T19:18:54.789Z,57.97
2022-11-10T19:22:00.777Z,58.53
2022-11-10T19:25:09.364Z,54.08
2022-11-10T19:28:14.329Z,54.53
2022-11-10T19:31:19.662Z,53.72
2022-11-10T19:34:24.290Z,50.35
2022-11-10T19:37:32.159Z,51.70
2022-11-10T19:40:39.844Z,51.97
2022-11-10T19:43:47.492Z,49.88
2022-11-10T19:46:51.973Z,49.60
2022-11-10T19:49:56.362Z,52.17
2022-11-10T19:53:00.787Z,55.10
2022-11-10T19:56:09.212Z,46.63
2022-11-10T19:59:14.799Z,44.53
2022-11-10T20:02:19.462Z,44.08
2022-11-10T20:05:23.953Z,46.88
2022-11-10T20:08:28.640Z,45.80
2022-11-10T20:11:32.700Z,44.78
2022-11-10T20:14:37.343Z,45.30
2022-11-10T20:17:42.530Z,44.25
2022-11-10T20:20:47.000Z,38.50
2022-11-10T20:23:55.942Z,39.47
2022-11-10T20:27:00.110Z,41.85
2022-11-10T20:30:05.084Z,46.28
2022-11-10T20:33:09.540Z,44.47
2022-11-10T20:36:26.180Z,44.28
2022-11-10T20:39:30.422Z,37.65
2022-11-10T20:42:37.842Z,39.08
2022-11-10T20:45:46.484Z,39.40
2022-11-10T20:48:50.504Z,35.42
2022-11-10T20:51:59.656Z,37.58
2022-11-10T20:55:05.489Z,34.33
2022-11-10T20:58:09.680Z,35.38
2022-11-10T21:01:15.672Z,36.75
2022-11-10T21:04:20.311Z,37.75
2022-11-10T21:07:24.536Z,35.17
2022-11-10T21:10:28.820Z,30.42
2022-11-10T21:13:34.675Z,30.27
2022-11-10T21:16:38.941Z,35.33
2022-11-10T21:19:43.568Z,34.25
2022-11-10T21:22:48.089Z,29.83
2022-11-10T21:25:57.619Z,31.98
2022-11-10T21:29:02.861Z,26.90
2022-11-10T21:32:07.204Z,29.00
2022-11-10T21:35:11.356Z,28.58
2022-11-10T21:38:15.795Z,30.73
2022-11-10T21:41:20.426Z,26.50
2022-11-10T21:44:24.819Z,25.52
2022-11-10T21:47:28.979Z,27.48
2022-11-10T21:50:33.313Z,27.85
2022-11-10T21:53:42.314Z,27.98
2022-11-10T21:56:46.426Z,30.48
2022-11-10T21:59:50.877Z,24.60
2022-11-10T22:03:04.339Z,25.45
2022-11-10T22:06:16.877Z,25.50
2022-11-10T22:09:40.965Z,23.73
2022-11-10T22:13:03.953Z,22.27
2022-11-10T22:16:42.023Z,21.63
2022-11-10T22:19:46.456Z,24.42
2022-11-10T22:22:50.916Z,25.63
2022-11-10T22:25:55.373Z,22.92
2022-11-10T22:28:59.747Z,21.30
2022-11-10T22:32:04.497Z,20.77
2022-11-10T22:35:29.159Z,22.25
2022-11-10T22:38:36.080Z,20.77
2022-11-10T22:41:58.659Z,20.98
2022-11-10T22:45:03.444Z,19.00
2022-11-10T22:48:26.155Z,20.17
2022-11-10T22:51:31.392Z,21.15
2022-11-10T22:54:35.406Z,22.17
2022-11-10T22:57:39.673Z,20.02
2022-11-10T23:00:46.737Z,19.42
2022-11-10T23:03:51.480Z,17.63
2022-11-10T23:06:56.229Z,20.30
2022-11-10T23:10:00.359Z,18.45
2022-11-10T23:13:04.637Z,20.77
2022-11-10T23:16:11.653Z,17.88
2022-11-10T23:19:16.160Z,16.27
2022-11-10T23:22:20.891Z,17.77
2022-11-10T23:25:25.343Z,16.13
2022-11-10T23:28:31.378Z,17.20
2022-11-10T23:31:35.582Z,17.27
2022-11-10T23:34:40.045Z,16.17
2022-11-10T23:37:44.432Z,17.05
2022-11-10T23:40:48.937Z,15.23
2022-11-10T23:43:54.004Z,16.90
2022-11-10T23:46:58.149Z,16.98
2022-11-10T23:50:03.112Z,12.45
2022-11-10T23:53:07.207Z,16.20
2022-11-10T23:56:13.586Z,15.50
2022-11-10T23:59:17.953Z,14.85
